sensor_id;sensor_type;location;lat;lon;timestamp;pressure;altitude;pressure_sealevel;temperature;humidity
9059;BME280;4564;42.034;25.834;2023-04-01T00:01:37;99462.78;;;9.48;98.68
9059;BME280;4564;42.034;25.834;2023-04-01T00:04:06;99460.25;;;9.40;99.17
9059;BME280;4564;42.034;25.834;2023-04-01T00:06:33;99453.31;;;9.31;99.96
9059;BME280;4564;42.034;25.834;2023-04-01T00:08:59;99454.78;;;9.27;99.83
9059;BME280;4564;42.034;25.834;2023-04-01T00:11:26;99451.41;;;9.25;100.00
9059;BME280;4564;42.034;25.834;2023-04-01T00:13:52;99443.00;;;9.13;99.70
9059;BME280;4564;42.034;25.834;2023-04-01T00:16:19;99445.47;;;9.08;100.00
9059;BME280;4564;42.034;25.834;2023-04-01T00:18:46;99438.19;;;9.09;100.00
9059;BME280;4564;42.034;25.834;2023-04-01T00:21:14;99441.69;;;9.03;100.00
9059;BME280;4564;42.034;25.834;2023-04-01T00:23:41;99431.34;;;9.06;100.00
9059;BME280;4564;42.034;25.834;2023-04-01T00:26:08;99433.22;;;9.12;99.90
9059;BME280;4564;42.034;25.834;2023-04-01T00:28:35;99423.78;;;8.95;100.00
9059;BME280;4564;42.034;25.834;2023-04-01T00:31:04;99417.50;;;8.95;100.00
9059;BME280;4564;42.034;25.834;2023-04-01T00:33:30;99426.41;;;8.89;100.00
9059;BME280;4564;42.034;25.834;2023-04-01T00:36:04;99418.91;;;8.84;100.00
9059;BME280;4564;42.034;25.834;2023-04-01T00:38:33;99415.19;;;8.64;100.00
9059;BME280;4564;42.034;25.834;2023-04-01T00:41:00;99408.16;;;8.69;100.00
9059;BME280;4564;42.034;25.834;2023-04-01T00:43:26;99405.31;;;8.77;100.00
9059;BME280;4564;42.034;25.834;2023-04-01T00:45:53;99407.53;;;8.67;100.00
9059;BME280;4564;42.034;25.834;2023-04-01T00:48:21;99402.25;;;8.53;100.00
9059;BME280;4564;42.034;25.834;2023-04-01T00:50:50;99400.94;;;8.49;100.00
9059;BME280;4564;42.034;25.834;2023-04-01T00:53:18;99406.16;;;8.50;100.00
9059;BME280;4564;42.034;25.834;2023-04-01T00:55:48;99396.31;;;8.42;100.00
9059;BME280;4564;42.034;25.834;2023-04-01T00:58:17;99403.34;;;8.37;100.00
9059;BME280;4564;42.034;25.834;2023-04-01T01:00:45;99405.50;;;8.48;100.00
9059;BME280;4564;42.034;25.834;2023-04-01T01:03:14;99399.53;;;8.53;100.00
9059;BME280;4564;42.034;25.834;2023-04-01T01:05:53;99392.22;;;8.53;100.00
9059;BME280;4564;42.034;25.834;2023-04-01T01:08:27;99388.44;;;8.75;100.00
9059;BME280;4564;42.034;25.834;2023-04-01T01:10:59;99387.41;;;8.76;100.00
9059;BME280;4564;42.034;25.834;2023-04-01T01:13:28;99384.63;;;8.63;100.00
9059;BME280;4564;42.034;25.834;2023-04-01T01:16:00;99377.44;;;8.49;100.00
9059;BME280;4564;42.034;25.834;2023-04-01T01:18:32;99386.31;;;8.36;100.00
9059;BME280;4564;42.034;25.834;2023-04-01T01:21:07;99381.41;;;8.25;100.00
9059;BME280;4564;42.034;25.834;2023-04-01T01:23:50;99385.31;;;8.23;100.00
9059;BME280;4564;42.034;25.834;2023-04-01T01:26:28;99393.31;;;8.31;100.00
9059;BME280;4564;42.034;25.834;2023-04-01T01:29:01;99405.59;;;8.33;100.00
9059;BME280;4564;42.034;25.834;2023-04-01T01:31:36;99400.09;;;8.27;100.00
9059;BME280;4564;42.034;25.834;2023-04-01T01:34:06;99410.72;;;8.28;100.00
9059;BME280;4564;42.034;25.834;2023-04-01T01:36:37;99407.88;;;8.30;100.00
9059;BME280;4564;42.034;25.834;2023-04-01T01:39:05;99409.16;;;8.34;100.00
9059;BME280;4564;42.034;25.834;2023-04-01T01:41:33;99402.47;;;8.30;100.00
9059;BME280;4564;42.034;25.834;2023-04-01T01:44:01;99397.38;;;8.41;100.00
9059;BME280;4564;42.034;25.834;2023-04-01T01:46:29;99402.56;;;8.43;100.00
9059;BME280;4564;42.034;25.834;2023-04-01T01:48:57;99399.22;;;8.41;100.00
9059;BME280;4564;42.034;25.834;2023-04-01T01:51:25;99403.34;;;8.37;100.00
9059;BME280;4564;42.034;25.834;2023-04-01T01:53:54;99397.91;;;8.30;100.00
9059;BME280;4564;42.034;25.834;2023-04-01T01:56:22;99393.41;;;8.23;100.00
9059;BME280;4564;42.034;25.834;2023-04-01T01:58:50;99387.16;;;8.22;100.00
9059;BME280;4564;42.034;25.834;2023-04-01T02:01:19;99387.41;;;8.27;100.00
9059;BME280;4564;42.034;25.834;2023-04-01T02:03:46;99385.13;;;8.24;100.00
9059;BME280;4564;42.034;25.834;2023-04-01T02:06:15;99386.81;;;8.25;100.00
9059;BME280;4564;42.034;25.834;2023-04-01T02:08:43;99390.06;;;8.21;99.92
9059;BME280;4564;42.034;25.834;2023-04-01T02:11:13;99389.19;;;8.14;99.38
9059;BME280;4564;42.034;25.834;2023-04-01T02:13:42;99392.53;;;7.94;98.37
9059;BME280;4564;42.034;25.834;2023-04-01T02:16:12;99384.16;;;7.89;97.73
9059;BME280;4564;42.034;25.834;2023-04-01T02:18:39;99393.16;;;7.75;98.48
9059;BME280;4564;42.034;25.834;2023-04-01T02:21:07;99391.31;;;7.76;98.93
9059;BME280;4564;42.034;25.834;2023-04-01T02:23:35;99392.59;;;7.44;99.96
9059;BME280;4564;42.034;25.834;2023-04-01T02:26:03;99385.34;;;7.44;100.00
9059;BME280;4564;42.034;25.834;2023-04-01T02:28:33;99375.03;;;7.69;100.00
9059;BME280;4564;42.034;25.834;2023-04-01T02:31:00;99366.66;;;7.85;98.04
9059;BME280;4564;42.034;25.834;2023-04-01T02:33:28;99361.47;;;7.84;98.12
9059;BME280;4564;42.034;25.834;2023-04-01T02:35:55;99369.75;;;7.61;99.67
9059;BME280;4564;42.034;25.834;2023-04-01T02:38:21;99357.66;;;7.57;100.00
9059;BME280;4564;42.034;25.834;2023-04-01T02:40:49;99354.69;;;7.52;100.00
9059;BME280;4564;42.034;25.834;2023-04-01T02:43:16;99338.97;;;7.55;100.00
9059;BME280;4564;42.034;25.834;2023-04-01T02:45:45;99346.47;;;7.60;100.00
9059;BME280;4564;42.034;25.834;2023-04-01T02:48:12;99342.16;;;7.44;100.00
9059;BME280;4564;42.034;25.834;2023-04-01T02:50:39;99337.22;;;7.48;100.00
9059;BME280;4564;42.034;25.834;2023-04-01T02:53:05;99338.72;;;7.36;100.00
9059;BME280;4564;42.034;25.834;2023-04-01T02:55:32;99337.03;;;7.35;100.00
9059;BME280;4564;42.034;25.834;2023-04-01T02:57:59;99333.97;;;7.38;100.00
9059;BME280;4564;42.034;25.834;2023-04-01T03:00:26;99341.41;;;7.36;100.00
9059;BME280;4564;42.034;25.834;2023-04-01T03:02:54;99345.56;;;7.53;100.00
9059;BME280;4564;42.034;25.834;2023-04-01T03:05:22;99336.56;;;7.67;100.00
9059;BME280;4564;42.034;25.834;2023-04-01T03:07:48;99337.66;;;7.73;100.00
9059;BME280;4564;42.034;25.834;2023-04-01T03:10:15;99335.69;;;7.81;100.00
9059;BME280;4564;42.034;25.834;2023-04-01T03:12:42;99332.19;;;8.09;100.00
9059;BME280;4564;42.034;25.834;2023-04-01T03:15:09;99332.22;;;8.15;99.76
9059;BME280;4564;42.034;25.834;2023-04-01T03:17:36;99334.88;;;8.30;99.33
9059;BME280;4564;42.034;25.834;2023-04-01T03:20:05;99332.25;;;8.36;98.79
9059;BME280;4564;42.034;25.834;2023-04-01T03:22:32;99332.28;;;8.43;97.88
9059;BME280;4564;42.034;25.834;2023-04-01T03:24:59;99333.41;;;8.55;97.36
9059;BME280;4564;42.034;25.834;2023-04-01T03:27:25;99334.06;;;8.64;96.65
9059;BME280;4564;42.034;25.834;2023-04-01T03:29:52;99338.53;;;8.78;95.95
9059;BME280;4564;42.034;25.834;2023-04-01T03:32:19;99336.72;;;8.92;95.66
9059;BME280;4564;42.034;25.834;2023-04-01T03:34:45;99331.78;;;9.02;94.41
9059;BME280;4564;42.034;25.834;2023-04-01T03:37:13;99326.41;;;9.08;94.09
9059;BME280;4564;42.034;25.834;2023-04-01T03:39:40;99333.06;;;9.06;94.31
9059;BME280;4564;42.034;25.834;2023-04-01T03:42:07;99324.88;;;8.93;94.11
9059;BME280;4564;42.034;25.834;2023-04-01T03:44:33;99325.53;;;8.95;94.20
9059;BME280;4564;42.034;25.834;2023-04-01T03:47:00;99319.66;;;8.91;95.13
9059;BME280;4564;42.034;25.834;2023-04-01T03:49:26;99319.28;;;8.94;95.10
9059;BME280;4564;42.034;25.834;2023-04-01T03:51:53;99321.19;;;9.00;94.64
9059;BME280;4564;42.034;25.834;2023-04-01T03:54:21;99312.06;;;9.14;93.24
9059;BME280;4564;42.034;25.834;2023-04-01T03:56:48;99311.22;;;9.14;93.16
9059;BME280;4564;42.034;25.834;2023-04-01T03:59:15;99300.63;;;9.19;92.92
9059;BME280;4564;42.034;25.834;2023-04-01T04:01:41;99295.28;;;9.32;92.30
9059;BME280;4564;42.034;25.834;2023-04-01T04:04:10;99289.03;;;9.38;91.63
9059;BME280;4564;42.034;25.834;2023-04-01T04:06:36;99278.63;;;9.42;92.27
9059;BME280;4564;42.034;25.834;2023-04-01T04:09:03;99284.03;;;9.35;92.47
9059;BME280;4564;42.034;25.834;2023-04-01T04:11:31;99293.59;;;9.31;93.09
9059;BME280;4564;42.034;25.834;2023-04-01T04:13:58;99288.41;;;9.36;92.56
9059;BME280;4564;42.034;25.834;2023-04-01T04:16:25;99290.06;;;9.37;92.00
9059;BME280;4564;42.034;25.834;2023-04-01T04:18:51;99295.72;;;9.42;92.24
9059;BME280;4564;42.034;25.834;2023-04-01T04:21:18;99294.09;;;9.54;91.73
9059;BME280;4564;42.034;25.834;2023-04-01T04:23:44;99293.03;;;9.55;91.51
9059;BME280;4564;42.034;25.834;2023-04-01T04:26:12;99300.75;;;9.58;91.33
9059;BME280;4564;42.034;25.834;2023-04-01T04:28:41;99303.69;;;9.63;91.20
9059;BME280;4564;42.034;25.834;2023-04-01T04:31:07;99300.97;;;9.70;91.02
9059;BME280;4564;42.034;25.834;2023-04-01T04:33:34;99303.06;;;9.75;90.92
9059;BME280;4564;42.034;25.834;2023-04-01T04:36:01;99310.56;;;9.73;90.85
9059;BME280;4564;42.034;25.834;2023-04-01T04:38:28;99313.25;;;9.73;91.11
9059;BME280;4564;42.034;25.834;2023-04-01T04:40:55;99307.03;;;9.85;91.31
9059;BME280;4564;42.034;25.834;2023-04-01T04:43:22;99309.97;;;9.97;91.17
9059;BME280;4564;42.034;25.834;2023-04-01T04:45:50;99307.25;;;9.97;89.76
9059;BME280;4564;42.034;25.834;2023-04-01T04:48:16;99314.56;;;9.96;89.94
9059;BME280;4564;42.034;25.834;2023-04-01T04:50:46;99318.31;;;10.08;89.30
9059;BME280;4564;42.034;25.834;2023-04-01T04:53:13;99317.88;;;10.05;89.15
9059;BME280;4564;42.034;25.834;2023-04-01T04:55:42;99306.00;;;10.06;89.58
9059;BME280;4564;42.034;25.834;2023-04-01T04:58:09;99305.81;;;10.07;89.65
9059;BME280;4564;42.034;25.834;2023-04-01T05:00:36;99313.31;;;10.12;88.90
9059;BME280;4564;42.034;25.834;2023-04-01T05:03:04;99311.22;;;10.14;89.34
9059;BME280;4564;42.034;25.834;2023-04-01T05:05:30;99306.44;;;10.16;89.36
9059;BME280;4564;42.034;25.834;2023-04-01T05:07:57;99303.34;;;10.19;88.88
9059;BME280;4564;42.034;25.834;2023-04-01T05:10:24;99309.38;;;10.21;88.85
9059;BME280;4564;42.034;25.834;2023-04-01T05:12:50;99313.50;;;10.63;89.03
9059;BME280;4564;42.034;25.834;2023-04-01T05:15:17;99311.81;;;11.33;86.46
9059;BME280;4564;42.034;25.834;2023-04-01T05:17:44;99302.06;;;11.57;84.07
9059;BME280;4564;42.034;25.834;2023-04-01T05:20:12;99295.59;;;11.89;83.25
9059;BME280;4564;42.034;25.834;2023-04-01T05:22:40;99293.59;;;13.73;80.41
9059;BME280;4564;42.034;25.834;2023-04-01T05:25:06;99293.84;;;15.75;71.33
9059;BME280;4564;42.034;25.834;2023-04-01T05:27:33;99299.72;;;17.66;62.42
9059;BME280;4564;42.034;25.834;2023-04-01T05:30:00;99285.16;;;18.88;57.02
9059;BME280;4564;42.034;25.834;2023-04-01T05:32:26;99282.91;;;18.11;56.89
9059;BME280;4564;42.034;25.834;2023-04-01T05:34:53;99283.78;;;17.41;59.82
9059;BME280;4564;42.034;25.834;2023-04-01T05:37:21;99280.63;;;16.67;61.49
9059;BME280;4564;42.034;25.834;2023-04-01T05:39:49;99273.81;;;15.58;65.21
9059;BME280;4564;42.034;25.834;2023-04-01T05:42:15;99274.16;;;15.33;67.01
9059;BME280;4564;42.034;25.834;2023-04-01T05:44:42;99277.13;;;15.31;66.94
9059;BME280;4564;42.034;25.834;2023-04-01T05:47:09;99279.63;;;14.58;69.79
9059;BME280;4564;42.034;25.834;2023-04-01T05:49:35;99269.34;;;13.95;73.06
9059;BME280;4564;42.034;25.834;2023-04-01T05:52:02;99258.34;;;14.02;73.15
9059;BME280;4564;42.034;25.834;2023-04-01T05:54:30;99252.09;;;14.48;72.76
9059;BME280;4564;42.034;25.834;2023-04-01T05:56:57;99254.84;;;16.13;67.99
9059;BME280;4564;42.034;25.834;2023-04-01T05:59:23;99257.31;;;16.86;64.49
9059;BME280;4564;42.034;25.834;2023-04-01T06:01:50;99260.44;;;16.73;63.53
9059;BME280;4564;42.034;25.834;2023-04-01T06:04:17;99269.75;;;16.55;64.24
9059;BME280;4564;42.034;25.834;2023-04-01T06:06:44;99275.22;;;16.55;65.66
9059;BME280;4564;42.034;25.834;2023-04-01T06:09:12;99269.22;;;16.75;63.65
9059;BME280;4564;42.034;25.834;2023-04-01T06:11:44;99282.81;;;17.74;62.48
9059;BME280;4564;42.034;25.834;2023-04-01T06:14:16;99283.28;;;19.55;56.22
9059;BME280;4564;42.034;25.834;2023-04-01T06:16:53;99268.28;;;20.44;54.60
9059;BME280;4564;42.034;25.834;2023-04-01T06:19:27;99273.53;;;21.99;48.95
9059;BME280;4564;42.034;25.834;2023-04-01T06:24:49;99281.88;;;23.81;43.49
9059;BME280;4564;42.034;25.834;2023-04-01T06:27:23;99276.50;;;24.59;41.31
9059;BME280;4564;42.034;25.834;2023-04-01T06:29:55;99265.22;;;24.70;40.00
9059;BME280;4564;42.034;25.834;2023-04-01T06:32:31;99265.31;;;24.32;40.41
9059;BME280;4564;42.034;25.834;2023-04-01T06:35:11;99267.34;;;24.27;40.39
9059;BME280;4564;42.034;25.834;2023-04-01T06:37:49;99260.72;;;22.76;44.00
9059;BME280;4564;42.034;25.834;2023-04-01T06:40:36;99260.84;;;20.44;49.90
9059;BME280;4564;42.034;25.834;2023-04-01T06:43:10;99265.69;;;19.66;53.48
9059;BME280;4564;42.034;25.834;2023-04-01T06:45:43;99259.81;;;18.80;55.67
9059;BME280;4564;42.034;25.834;2023-04-01T06:48:15;99255.69;;;18.09;59.21
9059;BME280;4564;42.034;25.834;2023-04-01T06:50:48;99261.84;;;17.41;61.94
9059;BME280;4564;42.034;25.834;2023-04-01T06:53:19;99246.13;;;17.09;63.90
9059;BME280;4564;42.034;25.834;2023-04-01T06:55:48;99239.16;;;17.02;64.35
9059;BME280;4564;42.034;25.834;2023-04-01T06:58:20;99231.00;;;17.07;64.88
9059;BME280;4564;42.034;25.834;2023-04-01T07:00:48;99231.44;;;17.42;63.62
9059;BME280;4564;42.034;25.834;2023-04-01T07:03:18;99230.34;;;17.65;63.39
9059;BME280;4564;42.034;25.834;2023-04-01T07:05:45;99230.41;;;17.48;63.74
9059;BME280;4564;42.034;25.834;2023-04-01T07:08:13;99214.13;;;17.42;64.26
9059;BME280;4564;42.034;25.834;2023-04-01T07:10:43;99213.28;;;17.63;63.62
9059;BME280;4564;42.034;25.834;2023-04-01T07:13:13;99208.56;;;17.85;63.14
9059;BME280;4564;42.034;25.834;2023-04-01T07:15:44;99210.66;;;18.47;60.85
9059;BME280;4564;42.034;25.834;2023-04-01T07:18:14;99194.22;;;18.15;62.31
9059;BME280;4564;42.034;25.834;2023-04-01T07:20:42;99205.69;;;18.02;62.60
9059;BME280;4564;42.034;25.834;2023-04-01T07:23:10;99208.53;;;17.80;64.02
9059;BME280;4564;42.034;25.834;2023-04-01T07:25:42;99199.44;;;17.53;65.73
9059;BME280;4564;42.034;25.834;2023-04-01T07:28:11;99196.94;;;18.52;63.68
9059;BME280;4564;42.034;25.834;2023-04-01T07:30:41;99202.81;;;19.33;60.59
9059;BME280;4564;42.034;25.834;2023-04-01T07:33:13;99193.28;;;19.71;58.80
9059;BME280;4564;42.034;25.834;2023-04-01T07:35:43;99194.03;;;19.26;59.92
9059;BME280;4564;42.034;25.834;2023-04-01T07:38:15;99189.81;;;19.08;60.78
9059;BME280;4564;42.034;25.834;2023-04-01T07:40:46;99187.56;;;18.43;62.56
9059;BME280;4564;42.034;25.834;2023-04-01T07:43:18;99184.91;;;17.79;65.34
9059;BME280;4564;42.034;25.834;2023-04-01T07:45:51;99169.13;;;17.38;67.83
9059;BME280;4564;42.034;25.834;2023-04-01T07:48:23;99165.03;;;17.13;69.25
9059;BME280;4564;42.034;25.834;2023-04-01T07:50:54;99157.91;;;17.17;70.08
9059;BME280;4564;42.034;25.834;2023-04-01T07:53:25;99160.38;;;18.04;66.96
9059;BME280;4564;42.034;25.834;2023-04-01T07:55:59;99153.59;;;18.54;66.41
9059;BME280;4564;42.034;25.834;2023-04-01T07:58:29;99147.16;;;18.96;63.35
9059;BME280;4564;42.034;25.834;2023-04-01T08:00:59;99145.66;;;19.50;62.74
9059;BME280;4564;42.034;25.834;2023-04-01T08:03:35;99137.38;;;20.11;59.67
9059;BME280;4564;42.034;25.834;2023-04-01T08:06:06;99132.13;;;20.40;58.95
9059;BME280;4564;42.034;25.834;2023-04-01T08:08:40;99127.41;;;20.56;58.46
9059;BME280;4564;42.034;25.834;2023-04-01T08:11:12;99112.56;;;20.26;59.89
9059;BME280;4564;42.034;25.834;2023-04-01T08:13:40;99100.50;;;19.97;60.88
9059;BME280;4564;42.034;25.834;2023-04-01T08:16:11;99107.63;;;20.03;60.74
9059;BME280;4564;42.034;25.834;2023-04-01T08:18:46;99102.66;;;20.20;61.85
9059;BME280;4564;42.034;25.834;2023-04-01T08:21:17;99099.25;;;20.59;60.40
9059;BME280;4564;42.034;25.834;2023-04-01T08:23:48;99098.50;;;20.38;59.50
9059;BME280;4564;42.034;25.834;2023-04-01T08:26:17;99087.22;;;20.24;60.72
9059;BME280;4564;42.034;25.834;2023-04-01T08:28:51;99083.78;;;20.63;59.93
9059;BME280;4564;42.034;25.834;2023-04-01T08:31:19;99081.63;;;21.09;58.73
9059;BME280;4564;42.034;25.834;2023-04-01T08:33:53;99067.06;;;20.98;58.88
9059;BME280;4564;42.034;25.834;2023-04-01T08:36:20;99063.47;;;20.98;59.50
9059;BME280;4564;42.034;25.834;2023-04-01T08:38:49;99055.03;;;20.79;59.48
9059;BME280;4564;42.034;25.834;2023-04-01T08:41:21;99048.63;;;20.39;60.54
9059;BME280;4564;42.034;25.834;2023-04-01T08:46:46;99026.75;;;21.02;60.01
9059;BME280;4564;42.034;25.834;2023-04-01T08:49:24;99033.63;;;21.44;59.52
9059;BME280;4564;42.034;25.834;2023-04-01T08:55:01;99035.81;;;22.52;53.05
9059;BME280;4564;42.034;25.834;2023-04-01T08:57:35;99032.22;;;23.13;52.11
9059;BME280;4564;42.034;25.834;2023-04-01T09:00:08;99037.56;;;23.60;52.03
9059;BME280;4564;42.034;25.834;2023-04-01T09:03:02;99037.63;;;23.88;49.38
9059;BME280;4564;42.034;25.834;2023-04-01T09:05:37;99030.97;;;23.56;49.41
9059;BME280;4564;42.034;25.834;2023-04-01T09:08:13;99031.16;;;23.27;48.40
9059;BME280;4564;42.034;25.834;2023-04-01T09:10:49;99033.72;;;23.24;49.13
9059;BME280;4564;42.034;25.834;2023-04-01T09:13:29;99027.50;;;22.76;49.32
9059;BME280;4564;42.034;25.834;2023-04-01T09:21:47;98998.59;;;22.63;50.45
9059;BME280;4564;42.034;25.834;2023-04-01T09:24:30;99008.97;;;22.76;49.90
9059;BME280;4564;42.034;25.834;2023-04-01T09:27:04;98996.53;;;22.74;50.26
9059;BME280;4564;42.034;25.834;2023-04-01T09:32:26;99004.22;;;22.58;50.56
9059;BME280;4564;42.034;25.834;2023-04-01T09:35:00;98997.56;;;22.16;51.70
9059;BME280;4564;42.034;25.834;2023-04-01T09:37:35;98984.22;;;22.24;51.39
9059;BME280;4564;42.034;25.834;2023-04-01T09:40:09;98980.44;;;22.57;50.14
9059;BME280;4564;42.034;25.834;2023-04-01T09:42:42;98981.88;;;22.73;49.94
9059;BME280;4564;42.034;25.834;2023-04-01T09:45:14;98973.63;;;23.06;50.15
9059;BME280;4564;42.034;25.834;2023-04-01T09:47:50;98960.13;;;22.85;50.20
9059;BME280;4564;42.034;25.834;2023-04-01T09:50:28;98954.97;;;22.60;50.36
9059;BME280;4564;42.034;25.834;2023-04-01T09:53:00;98952.59;;;22.72;50.74
9059;BME280;4564;42.034;25.834;2023-04-01T09:55:46;98952.78;;;23.13;49.41
9059;BME280;4564;42.034;25.834;2023-04-01T09:58:23;98936.84;;;23.05;48.23
9059;BME280;4564;42.034;25.834;2023-04-01T10:01:09;98938.56;;;23.01;47.79
9059;BME280;4564;42.034;25.834;2023-04-01T10:12:11;98913.38;;;22.46;48.82
9059;BME280;4564;42.034;25.834;2023-04-01T10:14:56;98902.44;;;21.99;50.13
9059;BME280;4564;42.034;25.834;2023-04-01T10:17:38;98909.25;;;21.59;51.38
9059;BME280;4564;42.034;25.834;2023-04-01T10:20:22;98897.25;;;21.45;51.66
9059;BME280;4564;42.034;25.834;2023-04-01T10:25:43;98903.38;;;21.42;52.16
9059;BME280;4564;42.034;25.834;2023-04-01T10:28:22;98904.88;;;21.29;52.46
9059;BME280;4564;42.034;25.834;2023-04-01T10:31:06;98894.16;;;21.22;52.57
9059;BME280;4564;42.034;25.834;2023-04-01T10:47:36;98839.22;;;20.34;54.23
9059;BME280;4564;42.034;25.834;2023-04-01T10:55:43;98828.75;;;20.26;54.97
9059;BME280;4564;42.034;25.834;2023-04-01T11:01:10;98820.25;;;20.62;54.69
9059;BME280;4564;42.034;25.834;2023-04-01T11:23:13;98780.84;;;21.14;53.41
9059;BME280;4564;42.034;25.834;2023-04-01T11:25:45;98765.22;;;21.04;54.11
9059;BME280;4564;42.034;25.834;2023-04-01T11:28:20;98749.41;;;20.86;53.89
9059;BME280;4564;42.034;25.834;2023-04-01T11:30:59;98738.06;;;20.64;54.00
9059;BME280;4564;42.034;25.834;2023-04-01T11:33:31;98731.09;;;20.42;54.55
9059;BME280;4564;42.034;25.834;2023-04-01T11:36:06;98722.22;;;20.17;55.14
9059;BME280;4564;42.034;25.834;2023-04-01T11:38:42;98709.56;;;20.16;55.35
9059;BME280;4564;42.034;25.834;2023-04-01T11:41:13;98709.97;;;20.33;54.95
9059;BME280;4564;42.034;25.834;2023-04-01T11:43:43;98704.03;;;20.49;54.73
9059;BME280;4564;42.034;25.834;2023-04-01T11:46:15;98695.44;;;20.80;54.49
9059;BME280;4564;42.034;25.834;2023-04-01T11:48:57;98687.50;;;20.73;54.13
9059;BME280;4564;42.034;25.834;2023-04-01T11:51:33;98652.66;;;20.59;53.78
9059;BME280;4564;42.034;25.834;2023-04-01T11:54:06;98664.56;;;20.54;54.09
9059;BME280;4564;42.034;25.834;2023-04-01T11:56:42;98669.09;;;20.69;53.48
9059;BME280;4564;42.034;25.834;2023-04-01T11:59:27;98654.53;;;20.87;52.73
9059;BME280;4564;42.034;25.834;2023-04-01T12:02:03;98644.50;;;20.96;51.96
9059;BME280;4564;42.034;25.834;2023-04-01T12:04:36;98660.34;;;20.85;51.57
9059;BME280;4564;42.034;25.834;2023-04-01T12:07:12;98652.31;;;20.65;52.45
9059;BME280;4564;42.034;25.834;2023-04-01T12:09:46;98636.78;;;20.50;53.25
9059;BME280;4564;42.034;25.834;2023-04-01T12:12:17;98661.16;;;20.62;53.65
9059;BME280;4564;42.034;25.834;2023-04-01T12:14:49;98678.06;;;20.79;52.66
9059;BME280;4564;42.034;25.834;2023-04-01T12:17:26;98652.19;;;20.99;52.97
9059;BME280;4564;42.034;25.834;2023-04-01T12:19:56;98640.97;;;21.14;52.45
9059;BME280;4564;42.034;25.834;2023-04-01T12:25:11;98639.47;;;21.22;52.88
9059;BME280;4564;42.034;25.834;2023-04-01T12:27:50;98634.78;;;21.22;53.19
9059;BME280;4564;42.034;25.834;2023-04-01T12:30:33;98623.00;;;21.17;52.69
9059;BME280;4564;42.034;25.834;2023-04-01T12:33:10;98626.00;;;20.97;53.12
9059;BME280;4564;42.034;25.834;2023-04-01T12:35:47;98631.44;;;20.83;53.25
9059;BME280;4564;42.034;25.834;2023-04-01T12:38:23;98623.91;;;20.88;53.25
9059;BME280;4564;42.034;25.834;2023-04-01T12:44:07;98626.69;;;21.07;53.13
9059;BME280;4564;42.034;25.834;2023-04-01T12:46:54;98628.25;;;21.13;53.12
9059;BME280;4564;42.034;25.834;2023-04-01T12:49:34;98635.84;;;21.26;52.61
9059;BME280;4564;42.034;25.834;2023-04-01T12:52:09;98618.06;;;21.14;52.50
9059;BME280;4564;42.034;25.834;2023-04-01T13:00:14;98621.03;;;20.99;53.14
9059;BME280;4564;42.034;25.834;2023-04-01T13:02:53;98609.19;;;21.17;53.42
9059;BME280;4564;42.034;25.834;2023-04-01T13:05:33;98604.50;;;21.17;52.88
9059;BME280;4564;42.034;25.834;2023-04-01T13:08:09;98604.34;;;21.27;53.30
9059;BME280;4564;42.034;25.834;2023-04-01T13:10:42;98594.75;;;21.25;52.52
9059;BME280;4564;42.034;25.834;2023-04-01T13:13:25;98562.19;;;21.03;52.99
9059;BME280;4564;42.034;25.834;2023-04-01T13:15:57;98545.63;;;20.66;53.22
9059;BME280;4564;42.034;25.834;2023-04-01T13:18:28;98565.97;;;20.70;54.84
9059;BME280;4564;42.034;25.834;2023-04-01T13:21:00;98547.19;;;20.72;54.83
9059;BME280;4564;42.034;25.834;2023-04-01T13:23:33;98557.63;;;20.75;54.76
9059;BME280;4564;42.034;25.834;2023-04-01T13:26:04;98546.31;;;20.76;54.25
9059;BME280;4564;42.034;25.834;2023-04-01T13:28:34;98553.16;;;20.79;54.07
9059;BME280;4564;42.034;25.834;2023-04-01T13:31:07;98551.53;;;20.78;53.96
9059;BME280;4564;42.034;25.834;2023-04-01T13:33:37;98553.16;;;20.79;53.91
9059;BME280;4564;42.034;25.834;2023-04-01T13:36:19;98543.91;;;20.70;53.49
9059;BME280;4564;42.034;25.834;2023-04-01T13:41:31;98561.63;;;20.64;53.31
9059;BME280;4564;42.034;25.834;2023-04-01T13:44:02;98557.00;;;20.59;53.39
9059;BME280;4564;42.034;25.834;2023-04-01T13:49:25;98540.00;;;20.52;53.78
9059;BME280;4564;42.034;25.834;2023-04-01T13:52:02;98543.06;;;20.50;53.62
9059;BME280;4564;42.034;25.834;2023-04-01T13:54:41;98521.78;;;20.56;53.41
9059;BME280;4564;42.034;25.834;2023-04-01T13:57:19;98521.66;;;20.42;53.58
9059;BME280;4564;42.034;25.834;2023-04-01T14:00:13;98520.16;;;20.31;54.25
9059;BME280;4564;42.034;25.834;2023-04-01T14:02:49;98512.56;;;20.18;54.39
9059;BME280;4564;42.034;25.834;2023-04-01T14:05:35;98515.69;;;20.11;54.75
9059;BME280;4564;42.034;25.834;2023-04-01T14:08:05;98520.38;;;20.11;55.08
9059;BME280;4564;42.034;25.834;2023-04-01T14:10:35;98522.53;;;20.14;54.91
9059;BME280;4564;42.034;25.834;2023-04-01T14:13:04;98515.91;;;20.15;54.56
9059;BME280;4564;42.034;25.834;2023-04-01T14:15:40;98522.34;;;20.05;54.30
9059;BME280;4564;42.034;25.834;2023-04-01T14:18:12;98510.81;;;20.03;54.87
9059;BME280;4564;42.034;25.834;2023-04-01T14:20:46;98510.34;;;19.96;55.22
9059;BME280;4564;42.034;25.834;2023-04-01T14:23:27;98516.69;;;19.97;54.94
9059;BME280;4564;42.034;25.834;2023-04-01T14:26:04;98505.13;;;19.95;54.87
9059;BME280;4564;42.034;25.834;2023-04-01T14:28:35;98499.72;;;19.85;54.99
9059;BME280;4564;42.034;25.834;2023-04-01T14:31:17;98496.78;;;19.76;54.98
9059;BME280;4564;42.034;25.834;2023-04-01T14:33:46;98498.31;;;19.63;55.45
9059;BME280;4564;42.034;25.834;2023-04-01T14:39:03;98489.28;;;19.58;55.84
9059;BME280;4564;42.034;25.834;2023-04-01T14:41:39;98502.31;;;19.47;56.25
9059;BME280;4564;42.034;25.834;2023-04-01T14:44:16;98513.66;;;19.36;56.34
9059;BME280;4564;42.034;25.834;2023-04-01T14:46:56;98521.13;;;19.30;56.51
9059;BME280;4564;42.034;25.834;2023-04-01T14:49:32;98545.34;;;19.28;56.70
9059;BME280;4564;42.034;25.834;2023-04-01T14:52:04;98573.44;;;19.25;56.64
9059;BME280;4564;42.034;25.834;2023-04-01T14:54:35;98605.91;;;19.18;57.36
9059;BME280;4564;42.034;25.834;2023-04-01T14:57:05;98631.78;;;19.17;57.12
9059;BME280;4564;42.034;25.834;2023-04-01T14:59:35;98652.69;;;19.18;57.36
9059;BME280;4564;42.034;25.834;2023-04-01T15:02:08;98663.13;;;19.21;56.75
9059;BME280;4564;42.034;25.834;2023-04-01T15:04:41;98701.66;;;19.16;59.46